sensor_id;sensor_type;location;lat;lon;timestamp;temperature;humidity
19192;DHT22;9728;48.194;16.346;2024-01-10T00:01:39;4.40;59.70
19192;DHT22;9728;48.194;16.346;2024-01-10T00:06:42;4.30;59.70
19192;DHT22;9728;48.194;16.346;2024-01-10T00:11:48;4.30;59.70
19192;DHT22;9728;48.194;16.346;2024-01-10T00:16:51;4.20;59.60
19192;DHT22;9728;48.194;16.346;2024-01-10T00:21:55;4.20;59.70
19192;DHT22;9728;48.194;16.346;2024-01-10T00:26:59;4.10;59.60
19192;DHT22;9728;48.194;16.346;2024-01-10T00:32:03;4.10;59.70
19192;DHT22;9728;48.194;16.346;2024-01-10T00:37:06;4.00;59.70
19192;DHT22;9728;48.194;16.346;2024-01-10T00:42:11;4.00;59.70
19192;DHT22;9728;48.194;16.346;2024-01-10T00:47:14;4.00;59.70
19192;DHT22;9728;48.194;16.346;2024-01-10T00:52:18;3.90;59.70
19192;DHT22;9728;48.194;16.346;2024-01-10T00:57:26;3.90;59.70
19192;DHT22;9728;48.194;16.346;2024-01-10T01:02:34;3.80;59.60
19192;DHT22;9728;48.194;16.346;2024-01-10T01:07:38;3.70;59.60
19192;DHT22;9728;48.194;16.346;2024-01-10T01:12:45;3.70;59.70
19192;DHT22;9728;48.194;16.346;2024-01-10T01:17:50;3.70;59.80
19192;DHT22;9728;48.194;16.346;2024-01-10T01:22:56;3.60;59.90
19192;DHT22;9728;48.194;16.346;2024-01-10T01:29:29;3.60;59.80
19192;DHT22;9728;48.194;16.346;2024-01-10T01:34:32;3.50;59.80
19192;DHT22;9728;48.194;16.346;2024-01-10T01:46:41;3.50;59.80
19192;DHT22;9728;48.194;16.346;2024-01-10T01:51:46;3.40;60.00
19192;DHT22;9728;48.194;16.346;2024-01-10T02:02:32;3.40;59.80
19192;DHT22;9728;48.194;16.346;2024-01-10T02:14:38;3.30;59.70
19192;DHT22;9728;48.194;16.346;2024-01-10T02:19:43;3.30;60.00
19192;DHT22;9728;48.194;16.346;2024-01-10T02:24:53;3.30;60.00
19192;DHT22;9728;48.194;16.346;2024-01-10T02:29:57;3.20;59.80
19192;DHT22;9728;48.194;16.346;2024-01-10T02:35:01;3.20;59.90
19192;DHT22;9728;48.194;16.346;2024-01-10T02:40:08;3.10;59.90
19192;DHT22;9728;48.194;16.346;2024-01-10T02:45:11;3.10;60.00
19192;DHT22;9728;48.194;16.346;2024-01-10T02:50:14;3.00;59.90
19192;DHT22;9728;48.194;16.346;2024-01-10T02:55:20;3.00;60.00
19192;DHT22;9728;48.194;16.346;2024-01-10T03:00:23;2.90;60.00
19192;DHT22;9728;48.194;16.346;2024-01-10T03:05:26;2.90;60.00
19192;DHT22;9728;48.194;16.346;2024-01-10T03:10:31;2.80;60.00
19192;DHT22;9728;48.194;16.346;2024-01-10T03:15:35;2.80;60.00
19192;DHT22;9728;48.194;16.346;2024-01-10T03:20:38;2.80;60.20
19192;DHT22;9728;48.194;16.346;2024-01-10T03:25:42;2.70;60.00
19192;DHT22;9728;48.194;16.346;2024-01-10T03:30:46;2.70;60.00
19192;DHT22;9728;48.194;16.346;2024-01-10T03:35:49;2.70;60.20
19192;DHT22;9728;48.194;16.346;2024-01-10T03:40:54;2.70;60.20
19192;DHT22;9728;48.194;16.346;2024-01-10T03:45:57;2.70;60.40
19192;DHT22;9728;48.194;16.346;2024-01-10T03:51:00;2.60;60.30
19192;DHT22;9728;48.194;16.346;2024-01-10T03:56:06;2.70;60.50
19192;DHT22;9728;48.194;16.346;2024-01-10T04:01:09;2.60;60.40
19192;DHT22;9728;48.194;16.346;2024-01-10T04:06:13;2.70;60.50
19192;DHT22;9728;48.194;16.346;2024-01-10T04:11:18;2.60;60.40
19192;DHT22;9728;48.194;16.346;2024-01-10T04:16:21;2.60;60.50
19192;DHT22;9728;48.194;16.346;2024-01-10T04:21:25;2.70;60.70
19192;DHT22;9728;48.194;16.346;2024-01-10T04:26:30;2.70;60.60
19192;DHT22;9728;48.194;16.346;2024-01-10T04:31:34;2.70;60.80
19192;DHT22;9728;48.194;16.346;2024-01-10T04:36:38;2.70;60.80
19192;DHT22;9728;48.194;16.346;2024-01-10T04:41:43;2.70;60.80
19192;DHT22;9728;48.194;16.346;2024-01-10T04:46:46;2.70;60.70
19192;DHT22;9728;48.194;16.346;2024-01-10T04:51:50;2.80;60.80
19192;DHT22;9728;48.194;16.346;2024-01-10T04:56:54;2.80;60.90
19192;DHT22;9728;48.194;16.346;2024-01-10T05:01:58;2.80;60.90
19192;DHT22;9728;48.194;16.346;2024-01-10T05:07:01;2.90;61.00
19192;DHT22;9728;48.194;16.346;2024-01-10T05:12:06;2.90;61.00
19192;DHT22;9728;48.194;16.346;2024-01-10T05:17:10;2.90;61.00
19192;DHT22;9728;48.194;16.346;2024-01-10T05:23:41;3.00;61.10
19192;DHT22;9728;48.194;16.346;2024-01-10T05:28:46;3.00;61.20
19192;DHT22;9728;48.194;16.346;2024-01-10T05:33:50;3.00;61.20
19192;DHT22;9728;48.194;16.346;2024-01-10T05:38:53;3.10;61.20
19192;DHT22;9728;48.194;16.346;2024-01-10T05:43:58;3.10;61.30
19192;DHT22;9728;48.194;16.346;2024-01-10T05:49:01;3.20;61.30
19192;DHT22;9728;48.194;16.346;2024-01-10T05:54:06;3.20;61.30
19192;DHT22;9728;48.194;16.346;2024-01-10T05:59:11;3.20;61.50
19192;DHT22;9728;48.194;16.346;2024-01-10T06:04:14;3.30;61.70
19192;DHT22;9728;48.194;16.346;2024-01-10T06:09:18;3.30;61.50
19192;DHT22;9728;48.194;16.346;2024-01-10T06:14:25;3.30;61.40
19192;DHT22;9728;48.194;16.346;2024-01-10T06:19:29;3.40;61.50
19192;DHT22;9728;48.194;16.346;2024-01-10T06:24:32;3.40;61.50
19192;DHT22;9728;48.194;16.346;2024-01-10T06:29:37;3.40;61.50
19192;DHT22;9728;48.194;16.346;2024-01-10T06:34:41;3.40;61.50
19192;DHT22;9728;48.194;16.346;2024-01-10T06:39:44;3.40;61.50
19192;DHT22;9728;48.194;16.346;2024-01-10T06:44:49;3.50;61.50
19192;DHT22;9728;48.194;16.346;2024-01-10T06:49:52;3.50;61.50
19192;DHT22;9728;48.194;16.346;2024-01-10T06:54:55;3.50;61.50
19192;DHT22;9728;48.194;16.346;2024-01-10T07:00:00;3.50;61.50
19192;DHT22;9728;48.194;16.346;2024-01-10T07:05:07;3.50;61.50
19192;DHT22;9728;48.194;16.346;2024-01-10T07:10:11;3.50;61.60
19192;DHT22;9728;48.194;16.346;2024-01-10T07:15:16;3.50;61.60
19192;DHT22;9728;48.194;16.346;2024-01-10T07:20:19;3.50;61.70
19192;DHT22;9728;48.194;16.346;2024-01-10T07:25:23;3.50;61.60
19192;DHT22;9728;48.194;16.346;2024-01-10T07:30:29;3.60;62.20
19192;DHT22;9728;48.194;16.346;2024-01-10T07:35:35;3.60;62.30
19192;DHT22;9728;48.194;16.346;2024-01-10T07:40:40;3.60;62.00
19192;DHT22;9728;48.194;16.346;2024-01-10T07:45:45;3.70;62.00
19192;DHT22;9728;48.194;16.346;2024-01-10T07:50:49;3.70;62.00
19192;DHT22;9728;48.194;16.346;2024-01-10T07:55:52;3.80;62.00
19192;DHT22;9728;48.194;16.346;2024-01-10T08:00:57;3.80;61.90
19192;DHT22;9728;48.194;16.346;2024-01-10T08:06:00;3.80;61.90
19192;DHT22;9728;48.194;16.346;2024-01-10T08:11:04;3.80;61.90
19192;DHT22;9728;48.194;16.346;2024-01-10T08:16:08;3.90;61.90
19192;DHT22;9728;48.194;16.346;2024-01-10T08:21:13;3.90;62.30
19192;DHT22;9728;48.194;16.346;2024-01-10T08:26:17;4.00;63.00
19192;DHT22;9728;48.194;16.346;2024-01-10T08:31:22;4.10;63.20
19192;DHT22;9728;48.194;16.346;2024-01-10T08:36:25;4.20;62.50
19192;DHT22;9728;48.194;16.346;2024-01-10T08:41:29;4.20;62.60
19192;DHT22;9728;48.194;16.346;2024-01-10T08:46:34;4.30;62.30
19192;DHT22;9728;48.194;16.346;2024-01-10T08:51:37;4.40;62.00
19192;DHT22;9728;48.194;16.346;2024-01-10T08:56:42;4.40;62.30
19192;DHT22;9728;48.194;16.346;2024-01-10T09:01:48;4.40;63.10
19192;DHT22;9728;48.194;16.346;2024-01-10T09:06:51;4.50;63.80
19192;DHT22;9728;48.194;16.346;2024-01-10T09:11:55;4.60;63.10
19192;DHT22;9728;48.194;16.346;2024-01-10T09:17:00;4.60;62.50
19192;DHT22;9728;48.194;16.346;2024-01-10T09:22:04;4.70;62.20
19192;DHT22;9728;48.194;16.346;2024-01-10T09:27:09;4.70;62.10
19192;DHT22;9728;48.194;16.346;2024-01-10T09:32:15;4.80;62.10
19192;DHT22;9728;48.194;16.346;2024-01-10T09:37:18;4.80;62.00
19192;DHT22;9728;48.194;16.346;2024-01-10T09:42:21;4.80;61.90
19192;DHT22;9728;48.194;16.346;2024-01-10T09:47:30;4.80;62.00
19192;DHT22;9728;48.194;16.346;2024-01-10T09:52:41;4.90;62.80
19192;DHT22;9728;48.194;16.346;2024-01-10T09:57:44;5.00;62.80
19192;DHT22;9728;48.194;16.346;2024-01-10T10:02:51;5.00;62.00
19192;DHT22;9728;48.194;16.346;2024-01-10T10:07:54;5.10;62.00
19192;DHT22;9728;48.194;16.346;2024-01-10T10:12:59;5.10;62.80
19192;DHT22;9728;48.194;16.346;2024-01-10T10:18:05;5.20;62.00
19192;DHT22;9728;48.194;16.346;2024-01-10T10:23:09;5.20;62.00
19192;DHT22;9728;48.194;16.346;2024-01-10T10:28:15;5.30;62.90
19192;DHT22;9728;48.194;16.346;2024-01-10T10:33:33;5.40;62.80
19192;DHT22;9728;48.194;16.346;2024-01-10T10:38:37;5.50;62.40
19192;DHT22;9728;48.194;16.346;2024-01-10T10:43:41;5.60;62.40
19192;DHT22;9728;48.194;16.346;2024-01-10T10:48:47;5.70;62.40
19192;DHT22;9728;48.194;16.346;2024-01-10T10:53:51;5.80;62.40
19192;DHT22;9728;48.194;16.346;2024-01-10T10:58:56;5.90;62.40
19192;DHT22;9728;48.194;16.346;2024-01-10T11:04:02;6.00;62.50
19192;DHT22;9728;48.194;16.346;2024-01-10T11:09:08;6.00;62.60
19192;DHT22;9728;48.194;16.346;2024-01-10T11:14:21;6.10;62.50
19192;DHT22;9728;48.194;16.346;2024-01-10T11:19:52;6.20;62.70
19192;DHT22;9728;48.194;16.346;2024-01-10T11:24:58;6.30;62.70
19192;DHT22;9728;48.194;16.346;2024-01-10T11:30:05;6.40;62.70
19192;DHT22;9728;48.194;16.346;2024-01-10T11:35:19;6.50;62.70
19192;DHT22;9728;48.194;16.346;2024-01-10T11:40:47;6.60;62.90
19192;DHT22;9728;48.194;16.346;2024-01-10T11:45:51;6.70;63.00
19192;DHT22;9728;48.194;16.346;2024-01-10T11:50:57;6.90;63.00
19192;DHT22;9728;48.194;16.346;2024-01-10T11:56:09;7.00;63.10
19192;DHT22;9728;48.194;16.346;2024-01-10T12:01:14;7.10;63.10
19192;DHT22;9728;48.194;16.346;2024-01-10T12:06:21;7.20;64.20
19192;DHT22;9728;48.194;16.346;2024-01-10T12:11:24;7.40;64.70
19192;DHT22;9728;48.194;16.346;2024-01-10T12:16:28;7.60;64.20
19192;DHT22;9728;48.194;16.346;2024-01-10T12:21:34;7.70;63.80
19192;DHT22;9728;48.194;16.346;2024-01-10T12:26:43;7.90;63.60
19192;DHT22;9728;48.194;16.346;2024-01-10T12:31:47;8.00;63.40
19192;DHT22;9728;48.194;16.346;2024-01-10T12:36:56;8.10;63.20
19192;DHT22;9728;48.194;16.346;2024-01-10T12:41:59;8.20;63.00
19192;DHT22;9728;48.194;16.346;2024-01-10T12:47:03;8.20;62.90
19192;DHT22;9728;48.194;16.346;2024-01-10T12:52:08;8.30;63.40
19192;DHT22;9728;48.194;16.346;2024-01-10T12:57:16;8.40;63.30
19192;DHT22;9728;48.194;16.346;2024-01-10T13:02:19;8.50;63.10
19192;DHT22;9728;48.194;16.346;2024-01-10T13:07:24;8.50;62.90
19192;DHT22;9728;48.194;16.346;2024-01-10T13:12:28;8.60;62.70
19192;DHT22;9728;48.194;16.346;2024-01-10T13:17:32;8.60;62.70
19192;DHT22;9728;48.194;16.346;2024-01-10T13:22:37;8.60;62.40
19192;DHT22;9728;48.194;16.346;2024-01-10T13:27:40;8.60;62.40
19192;DHT22;9728;48.194;16.346;2024-01-10T13:32:44;8.60;62.40
19192;DHT22;9728;48.194;16.346;2024-01-10T13:37:49;8.60;62.40
19192;DHT22;9728;48.194;16.346;2024-01-10T13:42:53;8.70;62.30
19192;DHT22;9728;48.194;16.346;2024-01-10T13:47:57;8.70;62.40
19192;DHT22;9728;48.194;16.346;2024-01-10T13:53:02;8.70;62.50
19192;DHT22;9728;48.194;16.346;2024-01-10T13:58:06;8.70;62.30
19192;DHT22;9728;48.194;16.346;2024-01-10T14:03:10;8.70;62.70
19192;DHT22;9728;48.194;16.346;2024-01-10T14:08:15;8.80;62.70
19192;DHT22;9728;48.194;16.346;2024-01-10T14:13:18;8.80;62.50
19192;DHT22;9728;48.194;16.346;2024-01-10T14:18:22;8.90;62.50
19192;DHT22;9728;48.194;16.346;2024-01-10T14:23:27;8.90;62.50
19192;DHT22;9728;48.194;16.346;2024-01-10T14:28:30;8.90;62.40
19192;DHT22;9728;48.194;16.346;2024-01-10T14:33:34;8.90;62.40
19192;DHT22;9728;48.194;16.346;2024-01-10T14:38:40;9.00;62.40
19192;DHT22;9728;48.194;16.346;2024-01-10T14:43:43;9.00;62.40
19192;DHT22;9728;48.194;16.346;2024-01-10T14:48:46;9.00;62.40
19192;DHT22;9728;48.194;16.346;2024-01-10T14:53:51;9.00;62.30
19192;DHT22;9728;48.194;16.346;2024-01-10T14:58:54;9.00;62.30
19192;DHT22;9728;48.194;16.346;2024-01-10T15:03:58;9.00;62.30
19192;DHT22;9728;48.194;16.346;2024-01-10T15:09:02;9.00;62.20
19192;DHT22;9728;48.194;16.346;2024-01-10T15:14:07;9.00;63.00
19192;DHT22;9728;48.194;16.346;2024-01-10T15:19:11;9.00;63.50
19192;DHT22;9728;48.194;16.346;2024-01-10T15:24:16;9.10;63.30
19192;DHT22;9728;48.194;16.346;2024-01-10T15:29:22;9.10;62.80
19192;DHT22;9728;48.194;16.346;2024-01-10T15:34:25;9.10;62.60
19192;DHT22;9728;48.194;16.346;2024-01-10T15:39:30;9.10;62.40
19192;DHT22;9728;48.194;16.346;2024-01-10T15:44:34;9.10;62.50
19192;DHT22;9728;48.194;16.346;2024-01-10T15:49:41;9.10;62.50
19192;DHT22;9728;48.194;16.346;2024-01-10T15:54:47;9.10;62.40
19192;DHT22;9728;48.194;16.346;2024-01-10T15:59:55;9.10;62.20
19192;DHT22;9728;48.194;16.346;2024-01-10T16:04:59;9.10;62.20
19192;DHT22;9728;48.194;16.346;2024-01-10T16:10:04;9.10;62.20
19192;DHT22;9728;48.194;16.346;2024-01-10T16:15:09;9.00;62.00
19192;DHT22;9728;48.194;16.346;2024-01-10T16:20:12;9.00;62.10
19192;DHT22;9728;48.194;16.346;2024-01-10T16:25:17;9.00;62.20
19192;DHT22;9728;48.194;16.346;2024-01-10T16:30:21;8.90;62.00
19192;DHT22;9728;48.194;16.346;2024-01-10T16:35:25;8.90;62.60
19192;DHT22;9728;48.194;16.346;2024-01-10T16:40:30;8.90;62.60
19192;DHT22;9728;48.194;16.346;2024-01-10T16:45:33;8.90;62.40
19192;DHT22;9728;48.194;16.346;2024-01-10T16:50:37;8.90;62.40
19192;DHT22;9728;48.194;16.346;2024-01-10T16:55:42;8.90;63.20
19192;DHT22;9728;48.194;16.346;2024-01-10T17:00:45;8.80;62.20
19192;DHT22;9728;48.194;16.346;2024-01-10T17:05:50;8.80;62.30
19192;DHT22;9728;48.194;16.346;2024-01-10T17:10:55;8.70;62.20
19192;DHT22;9728;48.194;16.346;2024-01-10T17:15:59;8.70;62.10
19192;DHT22;9728;48.194;16.346;2024-01-10T17:21:03;8.70;62.30
19192;DHT22;9728;48.194;16.346;2024-01-10T17:26:07;8.60;62.20
19192;DHT22;9728;48.194;16.346;2024-01-10T17:31:11;8.60;62.30
19192;DHT22;9728;48.194;16.346;2024-01-10T17:36:14;8.60;62.50
19192;DHT22;9728;48.194;16.346;2024-01-10T17:41:19;8.50;62.70
19192;DHT22;9728;48.194;16.346;2024-01-10T17:46:25;8.50;62.50
19192;DHT22;9728;48.194;16.346;2024-01-10T17:51:29;8.50;62.50
19192;DHT22;9728;48.194;16.346;2024-01-10T17:56:33;8.50;62.50
19192;DHT22;9728;48.194;16.346;2024-01-10T18:01:37;8.50;62.50
19192;DHT22;9728;48.194;16.346;2024-01-10T18:06:41;8.50;62.40
19192;DHT22;9728;48.194;16.346;2024-01-10T18:11:45;8.40;62.30
19192;DHT22;9728;48.194;16.346;2024-01-10T18:16:49;8.40;62.30
19192;DHT22;9728;48.194;16.346;2024-01-10T18:23:20;8.40;62.40
19192;DHT22;9728;48.194;16.346;2024-01-10T18:28:25;8.30;62.30
19192;DHT22;9728;48.194;16.346;2024-01-10T18:33:28;8.30;62.30
19192;DHT22;9728;48.194;16.346;2024-01-10T18:38:32;8.30;62.30
19192;DHT22;9728;48.194;16.346;2024-01-10T18:43:37;8.30;62.30
19192;DHT22;9728;48.194;16.346;2024-01-10T18:55:41;8.20;62.30
19192;DHT22;9728;48.194;16.346;2024-01-10T19:00:46;8.10;62.30
19192;DHT22;9728;48.194;16.346;2024-01-10T19:05:51;8.10;64.30
19192;DHT22;9728;48.194;16.346;2024-01-10T19:10:55;8.20;64.50
19192;DHT22;9728;48.194;16.346;2024-01-10T19:15:59;8.20;63.80
19192;DHT22;9728;48.194;16.346;2024-01-10T19:21:03;8.30;63.40
19192;DHT22;9728;48.194;16.346;2024-01-10T19:26:07;8.30;63.10
19192;DHT22;9728;48.194;16.346;2024-01-10T19:31:12;8.40;63.30
19192;DHT22;9728;48.194;16.346;2024-01-10T19:36:16;8.40;63.40
19192;DHT22;9728;48.194;16.346;2024-01-10T19:41:20;8.30;63.40
19192;DHT22;9728;48.194;16.346;2024-01-10T19:46:26;8.30;63.60
19192;DHT22;9728;48.194;16.346;2024-01-10T19:51:29;8.30;63.40
19192;DHT22;9728;48.194;16.346;2024-01-10T19:56:32;8.40;63.20
19192;DHT22;9728;48.194;16.346;2024-01-10T20:01:37;8.30;63.10
19192;DHT22;9728;48.194;16.346;2024-01-10T20:06:40;8.30;63.10
19192;DHT22;9728;48.194;16.346;2024-01-10T20:11:44;8.30;63.10
19192;DHT22;9728;48.194;16.346;2024-01-10T20:16:49;8.30;63.10
19192;DHT22;9728;48.194;16.346;2024-01-10T20:21:53;8.30;63.10
19192;DHT22;9728;48.194;16.346;2024-01-10T20:26:56;8.30;62.90
19192;DHT22;9728;48.194;16.346;2024-01-10T20:32:01;8.20;62.70
19192;DHT22;9728;48.194;16.346;2024-01-10T20:37:08;8.20;62.70
19192;DHT22;9728;48.194;16.346;2024-01-10T20:42:11;8.10;62.70
19192;DHT22;9728;48.194;16.346;2024-01-10T20:47:16;8.00;62.50
19192;DHT22;9728;48.194;16.346;2024-01-10T20:52:22;8.00;62.70
19192;DHT22;9728;48.194;16.346;2024-01-10T20:57:26;7.90;62.70
19192;DHT22;9728;48.194;16.346;2024-01-10T21:02:30;7.90;62.70
19192;DHT22;9728;48.194;16.346;2024-01-10T21:07:34;7.80;62.70
19192;DHT22;9728;48.194;16.346;2024-01-10T21:12:37;7.80;62.70
19192;DHT22;9728;48.194;16.346;2024-01-10T21:17:42;7.70;62.70
19192;DHT22;9728;48.194;16.346;2024-01-10T21:22:46;7.70;62.80
19192;DHT22;9728;48.194;16.346;2024-01-10T21:27:49;7.60;62.80
19192;DHT22;9728;48.194;16.346;2024-01-10T21:32:54;7.60;62.80
19192;DHT22;9728;48.194;16.346;2024-01-10T21:37:57;7.60;62.70
19192;DHT22;9728;48.194;16.346;2024-01-10T21:43:01;7.50;62.80
19192;DHT22;9728;48.194;16.346;2024-01-10T21:48:07;7.50;63.70
19192;DHT22;9728;48.194;16.346;2024-01-10T21:53:10;7.50;63.70
19192;DHT22;9728;48.194;16.346;2024-01-10T21:58:14;7.50;62.80
19192;DHT22;9728;48.194;16.346;2024-01-10T22:03:19;7.50;62.80
19192;DHT22;9728;48.194;16.346;2024-01-10T22:08:35;7.50;62.80
19192;DHT22;9728;48.194;16.346;2024-01-10T22:13:39;7.50;62.80
19192;DHT22;9728;48.194;16.346;2024-01-10T22:18:44;7.50;62.80
19192;DHT22;9728;48.194;16.346;2024-01-10T22:23:48;7.50;62.80
19192;DHT22;9728;48.194;16.346;2024-01-10T22:28:51;7.50;62.70
19192;DHT22;9728;48.194;16.346;2024-01-10T22:33:56;7.50;62.60
19192;DHT22;9728;48.194;16.346;2024-01-10T22:39:00;7.50;62.60
19192;DHT22;9728;48.194;16.346;2024-01-10T22:44:03;7.50;62.60
19192;DHT22;9728;48.194;16.346;2024-01-10T22:49:08;7.50;62.60
19192;DHT22;9728;48.194;16.346;2024-01-10T22:54:12;7.50;62.60
19192;DHT22;9728;48.194;16.346;2024-01-10T22:59:16;7.50;62.60
19192;DHT22;9728;48.194;16.346;2024-01-10T23:04:21;7.40;62.50
19192;DHT22;9728;48.194;16.346;2024-01-10T23:09:24;7.40;62.50
19192;DHT22;9728;48.194;16.346;2024-01-10T23:14:27;7.40;62.50
19192;DHT22;9728;48.194;16.346;2024-01-10T23:19:32;7.40;62.50
19192;DHT22;9728;48.194;16.346;2024-01-10T23:24:35;7.40;62.50
19192;DHT22;9728;48.194;16.346;2024-01-10T23:31:13;7.30;62.50
19192;DHT22;9728;48.194;16.346;2024-01-10T23:36:18;7.30;62.50
19192;DHT22;9728;48.194;16.346;2024-01-10T23:41:22;7.30;62.50
19192;DHT22;9728;48.194;16.346;2024-01-10T23:46:25;7.20;62.50
19192;DHT22;9728;48.194;16.346;2024-01-10T23:51:30;7.20;62.40
19192;DHT22;9728;48.194;16.346;2024-01-10T23:56:33;7.10;62.30
